Olafur — LG8727 — position and weather

sailwx.info

Track history (hours):
 
Tides and Currents Weather Stations Pressure Air Temp Water Temp Dewpoint Dewpoint Depression Visibility Wind Speed Wind Dir Waves Ship Positions

Olafur

Last reported at 2017-Nov-16 09:06 UTC. Time now 2017-Dec-14 02:39 UTC.
Position N 68°55' E 015°04'.
Warning: this ship's position is 27 days out of date.

Length 11 m.

Type: Fishing. MMSI: 257720800.

Date/timePositionNaut miles runAvg speedWind from/ knotsBaromVisibWave heightAir tempDewpointWater temp
2017-Nov-16 09:06N 68°55' E 015°04'0 0.0
2017-Nov-16 09:00N 68°55' E 015°04'0 0.0
2017-Nov-16 08:27N 68°55' E 015°04'0 0.0
2017-Nov-16 08:00N 68°55' E 015°04'0 0.0
2017-Nov-16 07:30N 68°55' E 015°04'0 0.0
2017-Nov-16 07:00N 68°55' E 015°04'0 0.0
2017-Nov-16 06:30N 68°55' E 015°04'0 0.0
2017-Nov-16 06:00N 68°55' E 015°04'0 0.0
2017-Nov-16 05:30N 68°55' E 015°04'0 0.0
2017-Nov-16 05:00N 68°55' E 015°04'0 0.0
2017-Nov-16 04:30N 68°55' E 015°04'0 0.0
2017-Nov-16 04:00N 68°55' E 015°04'0 0.0
2017-Nov-16 03:30N 68°55' E 015°04'0 0.0
2017-Nov-16 03:00N 68°55' E 015°04'0 0.0
2017-Nov-16 02:30N 68°55' E 015°04'0 0.0
2017-Nov-16 02:00N 68°55' E 015°04'0 0.0
2017-Nov-16 01:30N 68°55' E 015°04'0 0.0
2017-Nov-16 01:00N 68°55' E 015°04'0 0.0
2017-Nov-16 00:30N 68°55' E 015°04'0 0.0
2017-Nov-16 00:00N 68°55' E 015°04'0 0.0
2017-Nov-15 23:30N 68°55' E 015°04'0 0.0
2017-Nov-15 23:00N 68°55' E 015°04'0 0.0
2017-Nov-15 22:30N 68°55' E 015°04'0 0.0
2017-Nov-15 22:00N 68°55' E 015°04'0 0.3
2017-Nov-15 21:28N 68°55' E 015°04'0 0.0
2017-Nov-15 20:58N 68°55' E 015°04'2 4.9
2017-Nov-15 20:30N 68°56' E 014°60'4 8.0
2017-Nov-15 20:00N 68°57' E 014°49'3 6.1
2017-Nov-15 19:30N 68°57' E 014°40'1 1.2
2017-Nov-15 19:00N 68°58' E 014°39'1 1.2
2017-Nov-15 18:30N 68°58' E 014°38'1 1.4
2017-Nov-15 17:59N 68°59' E 014°36'1 1.3
2017-Nov-15 17:30N 68°59' E 014°34'1 1.1
2017-Nov-15 16:59N 68°58' E 014°35'1 1.3
2017-Nov-15 16:30N 68°58' E 014°36'1 1.4
2017-Nov-15 15:59N 68°57' E 014°38'1 1.3
2017-Nov-15 15:30N 68°57' E 014°39'1 1.2
2017-Nov-15 14:59N 68°56' E 014°40'1 1.3
2017-Nov-15 14:30N 68°56' E 014°41'1 1.2
2017-Nov-15 14:00N 68°55' E 014°43'1 1.2
2017-Nov-15 13:30N 68°55' E 014°44'0 0.9
2017-Nov-15 13:00N 68°55' E 014°44'3 5.8
2017-Nov-15 12:30N 68°58' E 014°39'2 3.1
2017-Nov-15 12:00N 68°58' E 014°35'3 5.9
2017-Nov-15 11:30N 68°56' E 014°41'1 2.3
2017-Nov-15 11:00N 68°56' E 014°44'2 4.9
2017-Nov-15 10:30N 68°58' E 014°42'1 1.3
2017-Nov-15 10:00N 68°59' E 014°41'1 1.3
2017-Nov-15 09:29N 68°59' E 014°39'1 1.1
2017-Nov-15 09:00N 68°59' E 014°38'1 1.1
2017-Nov-15 08:30N 68°59' E 014°37'1 1.1
2017-Nov-15 08:00N 68°58' E 014°38'1 1.1
2017-Nov-15 07:30N 68°58' E 014°39'1 1.1
2017-Nov-15 07:00N 68°58' E 014°40'1 1.2
2017-Nov-15 06:30N 68°57' E 014°41'1 1.0
2017-Nov-15 06:00N 68°57' E 014°40'1 1.2
2017-Nov-15 05:30N 68°57' E 014°39'1 1.2
2017-Nov-15 05:00N 68°58' E 014°38'1 1.1
2017-Nov-15 04:30N 68°58' E 014°36'1 1.2
2017-Nov-15 03:59N 68°58' E 014°35'0 0.9
2017-Nov-15 03:29N 68°58' E 014°35'1 1.1
2017-Nov-15 03:00N 68°57' E 014°36'1 1.2
2017-Nov-15 02:30N 68°57' E 014°37'1 1.1
2017-Nov-15 02:00N 68°57' E 014°38'0 0.6
2017-Nov-15 01:30N 68°57' E 014°38'3 5.1
2017-Nov-15 00:59N 68°60' E 014°38'0 0.8
2017-Nov-15 00:30N 68°59' E 014°38'0 0.7
2017-Nov-15 00:00N 68°59' E 014°39'0 0.5
2017-Nov-14 23:30N 68°59' E 014°39'0 0.3
2017-Nov-14 23:00N 68°59' E 014°39'0 0.4
2017-Nov-14 22:29N 68°58' E 014°39'0 0.3
2017-Nov-14 22:00N 68°58' E 014°40'0 0.3
2017-Nov-14 21:28N 68°58' E 014°40'0 0.2
2017-Nov-14 20:59N 68°58' E 014°40'1 1.3
2017-Nov-14 20:30N 68°58' E 014°41'1 2.8
2017-Nov-14 19:59N 68°59' E 014°39'2 3.3
2017-Nov-14 19:30N 68°58' E 014°40'1 1.9
2017-Nov-14 18:59N 68°58' E 014°37'1 1.6
2017-Nov-14 18:30N 68°57' E 014°37'3 5.1
2017-Nov-14 18:00N 68°58' E 014°43'4 7.4
2017-Nov-14 17:30N 68°57' E 014°54'4 7.3
2017-Nov-14 17:00N 68°55' E 015°02'1 1.8
2017-Nov-14 16:30N 68°55' E 015°04'0 0.3
2017-Nov-14 15:54N 68°55' E 015°04'0 0.0
2017-Nov-14 15:30N 68°55' E 015°04'0 0.0
2017-Nov-14 15:00N 68°55' E 015°04'0 0.0
2017-Nov-14 14:30N 68°55' E 015°04'0 0.0
2017-Nov-14 14:00N 68°55' E 015°04'0 0.0
2017-Nov-14 13:30N 68°55' E 015°04'0 0.0
2017-Nov-14 13:00N 68°55' E 015°04'0 0.0
2017-Nov-14 12:30N 68°55' E 015°04'0 0.0
2017-Nov-14 12:00N 68°55' E 015°04'0 0.0
2017-Nov-14 11:30N 68°55' E 015°04'0 0.0
2017-Nov-14 11:01N 68°55' E 015°04'0 0.0
2017-Nov-14 10:30N 68°55' E 015°04'0 0.0
2017-Nov-14 10:01N 68°55' E 015°04'0 0.0
2017-Nov-14 09:30N 68°55' E 015°04'0 0.0
2017-Nov-14 09:00N 68°55' E 015°04'0 0.0
2017-Nov-14 08:30N 68°55' E 015°04'0 0.0
2017-Nov-14 08:01N 68°55' E 015°04'0 0.0
2017-Nov-14 07:31N 68°55' E 015°04'0 0.3
2017-Nov-14 07:00N 68°55' E 015°04'0 0.0
2017-Nov-14 06:27N 68°55' E 015°04'2 3.8
2017-Nov-14 06:00N 68°56' E 015°01'4 7.5
2017-Nov-14 05:30N 68°60' E 014°59'3 6.6
2017-Nov-14 04:59N 69°03' E 015°03'3 6.8
2017-Nov-14 04:30N 69°05' E 015°10'1 2.5
2017-Nov-14 03:59N 69°05' E 015°13'1 1.3
2017-Nov-14 03:30N 69°05' E 015°15'1 1.2
2017-Nov-14 03:00N 69°04' E 015°16'1 2.8
2017-Nov-14 02:30N 69°05' E 015°13'3 5.6
2017-Nov-14 02:00N 69°03' E 015°18'1 2.2
2017-Nov-14 01:29N 69°03' E 015°21'1 1.3
2017-Nov-14 01:00N 69°03' E 015°21'1 1.3
2017-Nov-14 00:30N 69°04' E 015°21'1 1.3
2017-Nov-14 00:00N 69°04' E 015°20'1 1.3
2017-Nov-13 23:30N 69°05' E 015°19'1 1.1
2017-Nov-13 22:59N 69°05' E 015°20'1 1.4
2017-Nov-13 22:30N 69°06' E 015°22'1 1.2
2017-Nov-13 22:00N 69°06' E 015°20'7 0.3
2017-Nov-13 02:00N 69°01' E 015°07'0 0.0
2017-Nov-13 01:30N 69°01' E 015°07'0 0.0
2017-Nov-13 01:00N 69°01' E 015°07'0 0.0
2017-Nov-13 00:30N 69°01' E 015°07'2 4.3
2017-Nov-13 00:00N 69°03' E 015°11'4 8.5
2017-Nov-12 23:29N 69°06' E 015°18'3 6.9
2017-Nov-12 23:00N 69°09' E 015°23'1 1.8
2017-Nov-12 22:29N 69°09' E 015°21'1 1.9
2017-Nov-12 22:00N 69°09' E 015°18'1 2.6
2017-Nov-12 21:30N 69°08' E 015°15'1 2.2
2017-Nov-12 21:00N 69°07' E 015°14'4 8.0
2017-Nov-12 20:30N 69°04' E 015°06'4 8.3
2017-Nov-12 20:00N 69°01' E 014°59'4 8.1
2017-Nov-12 19:30N 68°57' E 014°60'3 5.2
2017-Nov-12 19:00N 68°55' E 015°04'0 0.0
2017-Nov-12 18:30N 68°55' E 015°04'0 0.0
2017-Nov-12 18:00N 68°55' E 015°04'0 0.0
2017-Nov-12 17:30N 68°55' E 015°04'0 0.0
2017-Nov-12 17:00N 68°55' E 015°04'0 0.0
2017-Nov-12 16:30N 68°55' E 015°04'0 0.0
2017-Nov-12 16:00N 68°55' E 015°04'0 0.0
2017-Nov-12 15:30N 68°55' E 015°04'0 0.0
2017-Nov-12 15:00N 68°55' E 015°04'0 0.0
2017-Nov-12 14:30N 68°55' E 015°04'0 0.3
2017-Nov-12 13:58N 68°55' E 015°04'1 1.7
2017-Nov-12 13:29N 68°55' E 015°02'4 7.8
2017-Nov-12 13:00N 68°59' E 014°59'4 8.1
2017-Nov-12 12:29N 69°03' E 015°03'4 7.6
2017-Nov-12 12:00N 69°05' E 015°10'4 7.6
2017-Nov-12 11:30N 69°08' E 015°19'2 3.6
2017-Nov-12 11:00N 69°09' E 015°23'1 1.5
2017-Nov-12 10:30N 69°10' E 015°22'0 0.9
2017-Nov-12 10:00N 69°09' E 015°21'1 1.6
2017-Nov-12 09:30N 69°09' E 015°21'1 1.3
2017-Nov-12 09:00N 69°08' E 015°21'1 1.1
2017-Nov-12 08:29N 69°08' E 015°20'1 1.3
2017-Nov-12 08:01N 69°09' E 015°19'1 1.4
2017-Nov-12 07:31N 69°09' E 015°18'1 1.4
2017-Nov-12 07:00N 69°09' E 015°17'1 1.6
2017-Nov-12 06:30N 69°08' E 015°17'0 0.9
2017-Nov-12 06:00N 69°08' E 015°16'1 1.2
2017-Nov-12 05:30N 69°08' E 015°16'1 1.3
2017-Nov-12 05:00N 69°09' E 015°14'1 1.2
2017-Nov-12 04:30N 69°08' E 015°13'1 1.5
2017-Nov-12 04:00N 69°08' E 015°14'0 0.3
2017-Nov-12 03:30N 69°08' E 015°14'4 7.3
2017-Nov-12 03:00N 69°11' E 015°17'3 6.0
2017-Nov-12 02:30N 69°14' E 015°18'1 1.9
2017-Nov-12 02:00N 69°13' E 015°18'1 1.8
2017-Nov-12 01:30N 69°12' E 015°18'1 1.6
2017-Nov-12 00:59N 69°11' E 015°18'1 1.4
2017-Nov-12 00:30N 69°11' E 015°19'1 1.4
2017-Nov-12 00:00N 69°10' E 015°20'1 1.4
2017-Nov-11 23:30N 69°10' E 015°21'1 1.3
2017-Nov-11 23:00N 69°09' E 015°22'0 0.5
2017-Nov-11 22:30N 69°09' E 015°22'1 2.8
2017-Nov-11 22:00N 69°08' E 015°21'2 3.2
2017-Nov-11 21:30N 69°09' E 015°17'1 1.9
2017-Nov-11 21:00N 69°09' E 015°15'1 1.8
2017-Nov-11 20:30N 69°08' E 015°14'1 1.7
2017-Nov-11 19:59N 69°08' E 015°15'1 1.3
2017-Nov-11 19:29N 69°09' E 015°14'1 1.2
2017-Nov-11 19:00N 69°09' E 015°13'1 1.1
2017-Nov-11 18:30N 69°09' E 015°12'1 1.3
2017-Nov-11 18:00N 69°09' E 015°13'1 1.3
2017-Nov-11 17:29N 69°08' E 015°14'1 1.3
2017-Nov-11 17:00N 69°07' E 015°15'1 1.2
2017-Nov-11 16:29N 69°07' E 015°15'0 1.0
2017-Nov-11 16:00N 69°07' E 015°14'1 1.1
2017-Nov-11 15:29N 69°07' E 015°13'1 1.2
2017-Nov-11 15:00N 69°08' E 015°12'1 1.1
2017-Nov-11 14:30N 69°08' E 015°11'1 1.1
2017-Nov-11 14:00N 69°09' E 015°10'1 1.1
2017-Nov-11 13:30N 69°08' E 015°10'1 1.2
2017-Nov-11 13:01N 69°08' E 015°11'1 1.2
2017-Nov-11 12:29N 69°07' E 015°12'1 1.1
2017-Nov-11 12:00N 69°07' E 015°13'0 0.9
2017-Nov-11 11:30N 69°07' E 015°14'2 4.8
2017-Nov-11 11:00N 69°09' E 015°17'2 3.4
2017-Nov-11 10:29N 69°10' E 015°16'0 1.0
2017-Nov-11 10:00N 69°11' E 015°15'1 1.5
2017-Nov-11 09:30N 69°10' E 015°15'1 1.4
2017-Nov-11 09:00N 69°09' E 015°15'1 1.3
2017-Nov-11 08:30N 69°09' E 015°16'1 2.8
2017-Nov-11 07:59N 69°09' E 015°12'3 5.2
2017-Nov-11 07:29N 69°07' E 015°15'2 4.2
2017-Nov-11 07:00N 69°08' E 015°11'2 3.1
2017-Nov-11 06:29N 69°07' E 015°12'4 7.3
2017-Nov-11 05:59N 69°04' E 015°06'5 9.7
2017-Nov-11 05:30N 68°60' E 014°59'4 8.5
2017-Nov-11 05:00N 68°56' E 015°02'2 2.9
2017-Nov-11 04:28N 68°55' E 015°04'0 0.0
2017-Nov-11 03:58N 68°55' E 015°04'0 0.0
2017-Nov-11 03:28N 68°55' E 015°04'0 0.0
2017-Nov-11 02:58N 68°55' E 015°04'0 0.0
2017-Nov-11 02:28N 68°55' E 015°04'0 0.0
2017-Nov-11 01:58N 68°55' E 015°04'0 0.0
2017-Nov-11 01:28N 68°55' E 015°04'0 0.0
2017-Nov-11 00:58N 68°55' E 015°04'0 0.0
2017-Nov-11 00:28N 68°55' E 015°04'0 0.0
2017-Nov-10 23:58N 68°55' E 015°04'0 0.0
2017-Nov-10 23:28N 68°55' E 015°04'0 0.0
2017-Nov-10 22:58N 68°55' E 015°04'0 0.0
2017-Nov-10 22:25N 68°55' E 015°04'0 0.0
2017-Nov-10 21:58N 68°55' E 015°04'0 0.0
2017-Nov-10 21:28N 68°55' E 015°04'0 0.0
2017-Nov-10 20:58N 68°55' E 015°04'0 0.0
2017-Nov-10 20:28N 68°55' E 015°04'0 0.0
2017-Nov-10 19:58N 68°55' E 015°04'0 0.0
2017-Nov-10 19:28N 68°55' E 015°04'0 0.0
2017-Nov-10 18:58N 68°55' E 015°04'0 0.0
2017-Nov-10 18:28N 68°55' E 015°04'0 0.0
2017-Nov-10 17:58N 68°55' E 015°04'0 0.0
2017-Nov-10 17:28N 68°55' E 015°04'0 0.0
2017-Nov-10 16:58N 68°55' E 015°04'0 0.0
2017-Nov-10 16:28N 68°55' E 015°04'0 0.0
2017-Nov-10 15:58N 68°55' E 015°04'0 0.0
2017-Nov-10 15:28N 68°55' E 015°04'0 0.0
2017-Nov-10 14:58N 68°55' E 015°04'0 0.0
2017-Nov-10 14:28N 68°55' E 015°04'0 0.0
2017-Nov-10 13:55N 68°55' E 015°04'0 0.0
2017-Nov-10 13:25N 68°55' E 015°04'0 0.0
2017-Nov-10 12:55N 68°55' E 015°04'0 0.4
2017-Nov-10 12:30N 68°55' E 015°04'0 0.3
2017-Nov-10 11:58N 68°55' E 015°04'0 0.0
2017-Nov-10 11:28N 68°55' E 015°04'0 0.0
2017-Nov-10 10:58N 68°55' E 015°04'0 0.0
2017-Nov-10 10:28N 68°55' E 015°04'0 0.0
2017-Nov-10 09:58N 68°55' E 015°04'0 0.0
2017-Nov-10 09:28N 68°55' E 015°04'0 0.0
2017-Nov-10 08:58N 68°55' E 015°04'0 0.0
2017-Nov-10 08:28N 68°55' E 015°04'0 0.0
2017-Nov-10 07:58N 68°55' E 015°04'0 0.0
2017-Nov-10 07:28N 68°55' E 015°04'0 0.0
2017-Nov-10 06:58N 68°55' E 015°04'0 0.0
2017-Nov-10 06:28N 68°55' E 015°04'0 0.0
2017-Nov-10 05:58N 68°55' E 015°04'0 0.0
2017-Nov-10 05:28N 68°55' E 015°04'0 0.0
2017-Nov-10 04:58N 68°55' E 015°04'0 0.0
2017-Nov-10 04:28N 68°55' E 015°04'0 0.0
2017-Nov-10 03:58N 68°55' E 015°04'0 0.0
2017-Nov-10 03:28N 68°55' E 015°04'0 0.0
2017-Nov-10 02:58N 68°55' E 015°04'0 0.0
2017-Nov-10 02:28N 68°55' E 015°04'0 0.0
2017-Nov-10 01:58N 68°55' E 015°04'0 0.0
2017-Nov-10 01:28N 68°55' E 015°04'0 0.0
2017-Nov-10 00:58N 68°55' E 015°04'0 0.0
2017-Nov-10 00:28N 68°55' E 015°04'0 0.0
2017-Nov-09 23:58N 68°55' E 015°04'0 0.0
2017-Nov-09 23:28N 68°55' E 015°04'0 0.0
2017-Nov-09 22:58N 68°55' E 015°04'0 0.0
2017-Nov-09 22:28N 68°55' E 015°04'0 0.0
2017-Nov-09 21:58N 68°55' E 015°04'0 0.0
2017-Nov-09 21:28N 68°55' E 015°04'0 0.0
2017-Nov-09 20:55N 68°55' E 015°04'0 0.0
2017-Nov-09 20:28N 68°55' E 015°04'0 0.0
2017-Nov-09 19:58N 68°55' E 015°04'0 0.0
2017-Nov-09 19:28N 68°55' E 015°04'0 0.0
2017-Nov-09 18:58N 68°55' E 015°04'0 0.0
2017-Nov-09 18:28N 68°55' E 015°04'0 0.0
2017-Nov-09 17:58N 68°55' E 015°04'0 0.0
2017-Nov-09 17:28N 68°55' E 015°04'0 0.0
2017-Nov-09 16:58N 68°55' E 015°04'0 0.0
2017-Nov-09 16:28N 68°55' E 015°04'0 0.0
2017-Nov-09 15:58N 68°55' E 015°04'0 0.0
2017-Nov-09 15:28N 68°55' E 015°04'0 0.0
2017-Nov-09 14:58N 68°55' E 015°04'0 0.0
2017-Nov-09 14:28N 68°55' E 015°04'0 0.0
2017-Nov-09 13:58N 68°55' E 015°04'0 0.0
2017-Nov-09 13:28N 68°55' E 015°04'0 0.0
2017-Nov-09 12:58N 68°55' E 015°04'0 0.0
2017-Nov-09 12:28N 68°55' E 015°04'0 0.0
2017-Nov-09 11:58N 68°55' E 015°04'0 0.0
2017-Nov-09 11:28N 68°55' E 015°04'0 0.0
2017-Nov-09 10:55N 68°55' E 015°04'0 0.0
2017-Nov-09 10:28N 68°55' E 015°04'0 0.0
2017-Nov-09 09:58N 68°55' E 015°04'0 0.0
2017-Nov-09 09:28N 68°55' E 015°04'0 0.0
2017-Nov-09 08:55N 68°55' E 015°04'0 0.0
2017-Nov-09 08:28N 68°55' E 015°04'0 0.0
2017-Nov-09 07:58N 68°55' E 015°04'0 0.0
2017-Nov-09 07:28N 68°55' E 015°04'0 0.0
2017-Nov-09 06:57N 68°55' E 015°04'0 0.3
2017-Nov-09 06:28N 68°55' E 015°04'0 0.1
2017-Nov-09 05:58N 68°55' E 015°04'2 4.7
2017-Nov-09 05:30N 68°56' E 014°60'3 6.9
2017-Nov-09 05:00N 68°60' E 014°59'3 6.2
2017-Nov-09 04:30N 69°01' E 015°07'3 5.2
2017-Nov-09 03:59N 69°01' E 015°14'1 2.5
2017-Nov-09 03:31N 68°59' E 015°14'1 1.5
2017-Nov-09 03:00N 69°00' E 015°13'1 1.5
2017-Nov-09 02:29N 69°01' E 015°12'0 1.0
2017-Nov-09 02:00N 69°01' E 015°12'1 1.3
2017-Nov-09 01:30N 69°01' E 015°13'1 1.5
2017-Nov-09 00:58N 68°60' E 015°14'1 1.4
2017-Nov-09 00:28N 68°59' E 015°15'0 0.9
2017-Nov-08 23:59N 68°60' E 015°15'0 0.4
2017-Nov-08 23:29N 68°60' E 015°15'0 0.9
2017-Nov-08 22:59N 68°59' E 015°15'2 4.6
2017-Nov-08 22:30N 69°01' E 015°12'2 4.3
2017-Nov-08 22:00N 68°59' E 015°14'3 5.2
2017-Nov-08 21:29N 69°00' E 015°21'1 1.5
2017-Nov-08 20:59N 69°00' E 015°19'1 1.6
2017-Nov-08 20:30N 68°60' E 015°17'1 1.6
2017-Nov-08 19:58N 68°60' E 015°15'0 0.8
2017-Nov-08 19:30N 68°60' E 015°14'1 1.4
2017-Nov-08 19:00N 69°00' E 015°16'1 1.5
2017-Nov-08 18:30N 69°00' E 015°18'1 1.5
2017-Nov-08 18:00N 69°01' E 015°20'1 1.5
2017-Nov-08 17:30N 69°01' E 015°22'1 1.1
2017-Nov-08 17:00N 69°01' E 015°23'1 1.5
2017-Nov-08 16:30N 69°01' E 015°21'1 1.6
2017-Nov-08 16:00N 69°01' E 015°19'1 1.6
2017-Nov-08 15:28N 69°01' E 015°16'1 1.4
2017-Nov-08 15:01N 69°00' E 015°15'1 1.4
2017-Nov-08 14:28N 69°00' E 015°13'2 3.3
2017-Nov-08 13:48N 69°01' E 015°07'0 0.0
2017-Nov-08 13:30N 69°01' E 015°07'0 0.0
2017-Nov-08 12:36N 69°01' E 015°07'0 0.0
2017-Nov-08 12:27N 69°01' E 015°07'0 0.2
2017-Nov-08 11:49N 69°01' E 015°07'3 1.0
2017-Nov-08 09:05N 69°00' E 015°15'1 5.5
2017-Nov-08 09:00N 69°00' E 015°13'2 4.9
2017-Nov-08 08:30N 69°01' E 015°07'4 7.3
2017-Nov-08 08:00N 68°59' E 014°59'4 7.7
2017-Nov-08 07:30N 68°56' E 015°02'1 2.5
2017-Nov-08 07:00N 68°55' E 015°04'0 0.0
2017-Nov-08 06:30N 68°55' E 015°04'0 0.0
2017-Nov-08 06:00N 68°55' E 015°04'0 0.0
2017-Nov-08 05:30N 68°55' E 015°04'0 0.0
2017-Nov-08 05:00N 68°55' E 015°04'0 0.0
2017-Nov-08 04:30N 68°55' E 015°04'0 0.0
2017-Nov-08 04:00N 68°55' E 015°04'0 0.0
2017-Nov-08 03:30N 68°55' E 015°04'0 0.0
2017-Nov-08 03:00N 68°55' E 015°04'0 0.0
2017-Nov-08 02:30N 68°55' E 015°04'0 0.0
2017-Nov-08 02:00N 68°55' E 015°04'0 0.0
2017-Nov-08 01:30N 68°55' E 015°04'0 0.0
2017-Nov-08 01:00N 68°55' E 015°04'0 0.0
2017-Nov-08 00:30N 68°55' E 015°04'0 0.0
2017-Nov-08 00:00N 68°55' E 015°04'0 0.0
2017-Nov-07 22:39N 68°55' E 015°04'0 0.0
2017-Nov-07 22:30N 68°55' E 015°04'0 0.0
2017-Nov-07 22:00N 68°55' E 015°04'0 0.0
2017-Nov-07 21:30N 68°55' E 015°04'0 0.2
2017-Nov-07 20:54N 68°55' E 015°04'1 2.3
2017-Nov-07 20:30N 68°55' E 015°02'4 7.3
2017-Nov-07 20:00N 68°59' E 014°59'3 6.4
2017-Nov-07 19:30N 69°02' E 015°03'4 7.2
2017-Nov-07 19:00N 69°03' E 015°12'4 7.5
2017-Nov-07 18:30N 69°06' E 015°18'3 5.1
2017-Nov-07 18:00N 69°08' E 015°23'1 1.7
2017-Nov-07 17:30N 69°09' E 015°22'1 1.4
2017-Nov-07 17:00N 69°10' E 015°20'1 1.4
2017-Nov-07 16:30N 69°09' E 015°20'1 1.5
2017-Nov-07 16:00N 69°08' E 015°21'1 1.5
2017-Nov-07 15:30N 69°08' E 015°23'1 1.2
2017-Nov-07 15:00N 69°07' E 015°23'1 1.3
2017-Nov-07 14:29N 69°07' E 015°21'1 1.5
2017-Nov-07 13:59N 69°08' E 015°20'1 1.5
2017-Nov-07 13:30N 69°09' E 015°19'1 1.3
2017-Nov-07 13:00N 69°09' E 015°17'1 1.4
2017-Nov-07 12:30N 69°08' E 015°18'1 1.5
2017-Nov-07 12:00N 69°08' E 015°19'1 1.5
2017-Nov-07 11:30N 69°07' E 015°20'1 1.5
2017-Nov-07 11:00N 69°06' E 015°22'3 5.1
2017-Nov-07 10:30N 69°09' E 015°18'2 3.4
2017-Nov-07 10:00N 69°10' E 015°16'1 1.1
2017-Nov-07 09:31N 69°10' E 015°17'1 1.1
2017-Nov-07 09:01N 69°09' E 015°18'1 1.2
2017-Nov-07 08:30N 69°09' E 015°20'1 1.3
2017-Nov-07 08:00N 69°09' E 015°21'0 0.8
2017-Nov-07 07:30N 69°09' E 015°22'1 1.5
2017-Nov-07 07:00N 69°08' E 015°22'1 1.0
2017-Nov-07 06:30N 69°08' E 015°21'1 2.4
2017-Nov-07 06:00N 69°08' E 015°18'2 4.3
2017-Nov-07 05:30N 69°07' E 015°22'3 5.6
2017-Nov-07 05:00N 69°09' E 015°16'1 1.0
2017-Nov-07 04:30N 69°08' E 015°17'1 1.3
2017-Nov-07 03:59N 69°08' E 015°17'1 1.2
2017-Nov-07 03:30N 69°08' E 015°15'1 1.5
2017-Nov-07 03:00N 69°08' E 015°14'1 1.5
2017-Nov-07 02:30N 69°09' E 015°12'1 1.4
2017-Nov-07 02:00N 69°08' E 015°13'1 1.6
2017-Nov-07 01:30N 69°07' E 015°14'1 1.5
2017-Nov-07 01:00N 69°07' E 015°14'1 1.3
2017-Nov-07 00:30N 69°07' E 015°13'1 1.6
2017-Nov-07 00:00N 69°08' E 015°11'1 1.4
2017-Nov-06 23:30N 69°08' E 015°10'1 1.1
2017-Nov-06 22:59N 69°08' E 015°10'1 1.3
2017-Nov-06 22:30N 69°07' E 015°11'1 1.3
2017-Nov-06 22:00N 69°06' E 015°12'0 0.3
2017-Nov-06 21:30N 69°06' E 015°12'3 5.2
2017-Nov-06 20:57N 69°09' E 015°12'0 0.6
2017-Nov-06 20:29N 69°09' E 015°13'  
Track history (hours):
 
Tides and Currents Weather Stations Pressure Air Temp Water Temp Dewpoint Dewpoint Depression Visibility Wind Speed Wind Dir Waves Ship Positions

Olafur

Last reported at 2017-Nov-16 09:06 UTC. Time now 2017-Dec-14 02:39 UTC.
Position N 68°55' E 015°04'.
Warning: this ship's position is 27 days out of date.

Length 11 m.

Type: Fishing. MMSI: 257720800.

Date/timePositionNaut miles runAvg speedWind from/ knotsBaromVisibWave heightAir tempDewpointWater temp
2017-Nov-16 09:06N 68°55' E 015°04'0 0.0
2017-Nov-16 09:00N 68°55' E 015°04'0 0.0
2017-Nov-16 08:27N 68°55' E 015°04'0 0.0
2017-Nov-16 08:00N 68°55' E 015°04'0 0.0
2017-Nov-16 07:30N 68°55' E 015°04'0 0.0
2017-Nov-16 07:00N 68°55' E 015°04'0 0.0
2017-Nov-16 06:30N 68°55' E 015°04'0 0.0
2017-Nov-16 06:00N 68°55' E 015°04'0 0.0
2017-Nov-16 05:30N 68°55' E 015°04'0 0.0
2017-Nov-16 05:00N 68°55' E 015°04'0 0.0
2017-Nov-16 04:30N 68°55' E 015°04'0 0.0
2017-Nov-16 04:00N 68°55' E 015°04'0 0.0
2017-Nov-16 03:30N 68°55' E 015°04'0 0.0
2017-Nov-16 03:00N 68°55' E 015°04'0 0.0
2017-Nov-16 02:30N 68°55' E 015°04'0 0.0
2017-Nov-16 02:00N 68°55' E 015°04'0 0.0
2017-Nov-16 01:30N 68°55' E 015°04'0 0.0
2017-Nov-16 01:00N 68°55' E 015°04'0 0.0
2017-Nov-16 00:30N 68°55' E 015°04'0 0.0
2017-Nov-16 00:00N 68°55' E 015°04'0 0.0
2017-Nov-15 23:30N 68°55' E 015°04'0 0.0
2017-Nov-15 23:00N 68°55' E 015°04'0 0.0
2017-Nov-15 22:30N 68°55' E 015°04'0 0.0
2017-Nov-15 22:00N 68°55' E 015°04'0 0.3
2017-Nov-15 21:28N 68°55' E 015°04'0 0.0
2017-Nov-15 20:58N 68°55' E 015°04'2 4.9
2017-Nov-15 20:30N 68°56' E 014°60'4 8.0
2017-Nov-15 20:00N 68°57' E 014°49'3 6.1
2017-Nov-15 19:30N 68°57' E 014°40'1 1.2
2017-Nov-15 19:00N 68°58' E 014°39'1 1.2
2017-Nov-15 18:30N 68°58' E 014°38'1 1.4
2017-Nov-15 17:59N 68°59' E 014°36'1 1.3
2017-Nov-15 17:30N 68°59' E 014°34'1 1.1
2017-Nov-15 16:59N 68°58' E 014°35'1 1.3
2017-Nov-15 16:30N 68°58' E 014°36'1 1.4
2017-Nov-15 15:59N 68°57' E 014°38'1 1.3
2017-Nov-15 15:30N 68°57' E 014°39'1 1.2
2017-Nov-15 14:59N 68°56' E 014°40'1 1.3
2017-Nov-15 14:30N 68°56' E 014°41'1 1.2
2017-Nov-15 14:00N 68°55' E 014°43'1 1.2
2017-Nov-15 13:30N 68°55' E 014°44'0 0.9
2017-Nov-15 13:00N 68°55' E 014°44'3 5.8
2017-Nov-15 12:30N 68°58' E 014°39'2 3.1
2017-Nov-15 12:00N 68°58' E 014°35'3 5.9
2017-Nov-15 11:30N 68°56' E 014°41'1 2.3
2017-Nov-15 11:00N 68°56' E 014°44'2 4.9
2017-Nov-15 10:30N 68°58' E 014°42'1 1.3
2017-Nov-15 10:00N 68°59' E 014°41'1 1.3
2017-Nov-15 09:29N 68°59' E 014°39'1 1.1
2017-Nov-15 09:00N 68°59' E 014°38'1 1.1
2017-Nov-15 08:30N 68°59' E 014°37'1 1.1
2017-Nov-15 08:00N 68°58' E 014°38'1 1.1
2017-Nov-15 07:30N 68°58' E 014°39'1 1.1
2017-Nov-15 07:00N 68°58' E 014°40'1 1.2
2017-Nov-15 06:30N 68°57' E 014°41'1 1.0
2017-Nov-15 06:00N 68°57' E 014°40'1 1.2
2017-Nov-15 05:30N 68°57' E 014°39'1 1.2
2017-Nov-15 05:00N 68°58' E 014°38'1 1.1
2017-Nov-15 04:30N 68°58' E 014°36'1 1.2
2017-Nov-15 03:59N 68°58' E 014°35'0 0.9
2017-Nov-15 03:29N 68°58' E 014°35'1 1.1
2017-Nov-15 03:00N 68°57' E 014°36'1 1.2
2017-Nov-15 02:30N 68°57' E 014°37'1 1.1
2017-Nov-15 02:00N 68°57' E 014°38'0 0.6
2017-Nov-15 01:30N 68°57' E 014°38'3 5.1
2017-Nov-15 00:59N 68°60' E 014°38'0 0.8
2017-Nov-15 00:30N 68°59' E 014°38'0 0.7
2017-Nov-15 00:00N 68°59' E 014°39'0 0.5
2017-Nov-14 23:30N 68°59' E 014°39'0 0.3
2017-Nov-14 23:00N 68°59' E 014°39'0 0.4
2017-Nov-14 22:29N 68°58' E 014°39'0 0.3
2017-Nov-14 22:00N 68°58' E 014°40'0 0.3
2017-Nov-14 21:28N 68°58' E 014°40'0 0.2
2017-Nov-14 20:59N 68°58' E 014°40'1 1.3
2017-Nov-14 20:30N 68°58' E 014°41'1 2.8
2017-Nov-14 19:59N 68°59' E 014°39'2 3.3
2017-Nov-14 19:30N 68°58' E 014°40'1 1.9
2017-Nov-14 18:59N 68°58' E 014°37'1 1.6
2017-Nov-14 18:30N 68°57' E 014°37'3 5.1
2017-Nov-14 18:00N 68°58' E 014°43'4 7.4
2017-Nov-14 17:30N 68°57' E 014°54'4 7.3
2017-Nov-14 17:00N 68°55' E 015°02'1 1.8
2017-Nov-14 16:30N 68°55' E 015°04'0 0.3
2017-Nov-14 15:54N 68°55' E 015°04'0 0.0
2017-Nov-14 15:30N 68°55' E 015°04'0 0.0
2017-Nov-14 15:00N 68°55' E 015°04'0 0.0
2017-Nov-14 14:30N 68°55' E 015°04'0 0.0
2017-Nov-14 14:00N 68°55' E 015°04'0 0.0
2017-Nov-14 13:30N 68°55' E 015°04'0 0.0
2017-Nov-14 13:00N 68°55' E 015°04'0 0.0
2017-Nov-14 12:30N 68°55' E 015°04'0 0.0
2017-Nov-14 12:00N 68°55' E 015°04'0 0.0
2017-Nov-14 11:30N 68°55' E 015°04'0 0.0
2017-Nov-14 11:01N 68°55' E 015°04'0 0.0
2017-Nov-14 10:30N 68°55' E 015°04'0 0.0
2017-Nov-14 10:01N 68°55' E 015°04'0 0.0
2017-Nov-14 09:30N 68°55' E 015°04'0 0.0
2017-Nov-14 09:00N 68°55' E 015°04'0 0.0
2017-Nov-14 08:30N 68°55' E 015°04'0 0.0
2017-Nov-14 08:01N 68°55' E 015°04'0 0.0
2017-Nov-14 07:31N 68°55' E 015°04'0 0.3
2017-Nov-14 07:00N 68°55' E 015°04'0 0.0
2017-Nov-14 06:27N 68°55' E 015°04'2 3.8
2017-Nov-14 06:00N 68°56' E 015°01'4 7.5
2017-Nov-14 05:30N 68°60' E 014°59'3 6.6
2017-Nov-14 04:59N 69°03' E 015°03'3 6.8
2017-Nov-14 04:30N 69°05' E 015°10'1 2.5
2017-Nov-14 03:59N 69°05' E 015°13'1 1.3
2017-Nov-14 03:30N 69°05' E 015°15'1 1.2
2017-Nov-14 03:00N 69°04' E 015°16'1 2.8
2017-Nov-14 02:30N 69°05' E 015°13'3 5.6
2017-Nov-14 02:00N 69°03' E 015°18'1 2.2
2017-Nov-14 01:29N 69°03' E 015°21'1 1.3
2017-Nov-14 01:00N 69°03' E 015°21'1 1.3
2017-Nov-14 00:30N 69°04' E 015°21'1 1.3
2017-Nov-14 00:00N 69°04' E 015°20'1 1.3
2017-Nov-13 23:30N 69°05' E 015°19'1 1.1
2017-Nov-13 22:59N 69°05' E 015°20'1 1.4
2017-Nov-13 22:30N 69°06' E 015°22'1 1.2
2017-Nov-13 22:00N 69°06' E 015°20'7 0.3
2017-Nov-13 02:00N 69°01' E 015°07'0 0.0
2017-Nov-13 01:30N 69°01' E 015°07'0 0.0
2017-Nov-13 01:00N 69°01' E 015°07'0 0.0
2017-Nov-13 00:30N 69°01' E 015°07'2 4.3
2017-Nov-13 00:00N 69°03' E 015°11'4 8.5
2017-Nov-12 23:29N 69°06' E 015°18'3 6.9
2017-Nov-12 23:00N 69°09' E 015°23'1 1.8
2017-Nov-12 22:29N 69°09' E 015°21'1 1.9
2017-Nov-12 22:00N 69°09' E 015°18'1 2.6
2017-Nov-12 21:30N 69°08' E 015°15'1 2.2
2017-Nov-12 21:00N 69°07' E 015°14'4 8.0
2017-Nov-12 20:30N 69°04' E 015°06'4 8.3
2017-Nov-12 20:00N 69°01' E 014°59'4 8.1
2017-Nov-12 19:30N 68°57' E 014°60'3 5.2
2017-Nov-12 19:00N 68°55' E 015°04'0 0.0
2017-Nov-12 18:30N 68°55' E 015°04'0 0.0
2017-Nov-12 18:00N 68°55' E 015°04'0 0.0
2017-Nov-12 17:30N 68°55' E 015°04'0 0.0
2017-Nov-12 17:00N 68°55' E 015°04'0 0.0
2017-Nov-12 16:30N 68°55' E 015°04'0 0.0
2017-Nov-12 16:00N 68°55' E 015°04'0 0.0
2017-Nov-12 15:30N 68°55' E 015°04'0 0.0
2017-Nov-12 15:00N 68°55' E 015°04'0 0.0
2017-Nov-12 14:30N 68°55' E 015°04'0 0.3
2017-Nov-12 13:58N 68°55' E 015°04'1 1.7
2017-Nov-12 13:29N 68°55' E 015°02'4 7.8
2017-Nov-12 13:00N 68°59' E 014°59'4 8.1
2017-Nov-12 12:29N 69°03' E 015°03'4 7.6
2017-Nov-12 12:00N 69°05' E 015°10'4 7.6
2017-Nov-12 11:30N 69°08' E 015°19'2 3.6
2017-Nov-12 11:00N 69°09' E 015°23'1 1.5
2017-Nov-12 10:30N 69°10' E 015°22'0 0.9
2017-Nov-12 10:00N 69°09' E 015°21'1 1.6
2017-Nov-12 09:30N 69°09' E 015°21'1 1.3
2017-Nov-12 09:00N 69°08' E 015°21'1 1.1
2017-Nov-12 08:29N 69°08' E 015°20'1 1.3
2017-Nov-12 08:01N 69°09' E 015°19'1 1.4
2017-Nov-12 07:31N 69°09' E 015°18'1 1.4
2017-Nov-12 07:00N 69°09' E 015°17'1 1.6
2017-Nov-12 06:30N 69°08' E 015°17'0 0.9
2017-Nov-12 06:00N 69°08' E 015°16'1 1.2
2017-Nov-12 05:30N 69°08' E 015°16'1 1.3
2017-Nov-12 05:00N 69°09' E 015°14'1 1.2
2017-Nov-12 04:30N 69°08' E 015°13'1 1.5
2017-Nov-12 04:00N 69°08' E 015°14'0 0.3
2017-Nov-12 03:30N 69°08' E 015°14'4 7.3
2017-Nov-12 03:00N 69°11' E 015°17'3 6.0
2017-Nov-12 02:30N 69°14' E 015°18'1 1.9
2017-Nov-12 02:00N 69°13' E 015°18'1 1.8
2017-Nov-12 01:30N 69°12' E 015°18'1 1.6
2017-Nov-12 00:59N 69°11' E 015°18'1 1.4
2017-Nov-12 00:30N 69°11' E 015°19'1 1.4
2017-Nov-12 00:00N 69°10' E 015°20'1 1.4
2017-Nov-11 23:30N 69°10' E 015°21'1 1.3
2017-Nov-11 23:00N 69°09' E 015°22'0 0.5
2017-Nov-11 22:30N 69°09' E 015°22'1 2.8
2017-Nov-11 22:00N 69°08' E 015°21'2 3.2
2017-Nov-11 21:30N 69°09' E 015°17'1 1.9
2017-Nov-11 21:00N 69°09' E 015°15'1 1.8
2017-Nov-11 20:30N 69°08' E 015°14'1 1.7
2017-Nov-11 19:59N 69°08' E 015°15'1 1.3
2017-Nov-11 19:29N 69°09' E 015°14'1 1.2
2017-Nov-11 19:00N 69°09' E 015°13'1 1.1
2017-Nov-11 18:30N 69°09' E 015°12'1 1.3
2017-Nov-11 18:00N 69°09' E 015°13'1 1.3
2017-Nov-11 17:29N 69°08' E 015°14'1 1.3
2017-Nov-11 17:00N 69°07' E 015°15'1 1.2
2017-Nov-11 16:29N 69°07' E 015°15'0 1.0
2017-Nov-11 16:00N 69°07' E 015°14'1 1.1
2017-Nov-11 15:29N 69°07' E 015°13'1 1.2
2017-Nov-11 15:00N 69°08' E 015°12'1 1.1
2017-Nov-11 14:30N 69°08' E 015°11'1 1.1
2017-Nov-11 14:00N 69°09' E 015°10'1 1.1
2017-Nov-11 13:30N 69°08' E 015°10'1 1.2
2017-Nov-11 13:01N 69°08' E 015°11'1 1.2
2017-Nov-11 12:29N 69°07' E 015°12'1 1.1
2017-Nov-11 12:00N 69°07' E 015°13'0 0.9
2017-Nov-11 11:30N 69°07' E 015°14'2 4.8
2017-Nov-11 11:00N 69°09' E 015°17'2 3.4
2017-Nov-11 10:29N 69°10' E 015°16'0 1.0
2017-Nov-11 10:00N 69°11' E 015°15'1 1.5
2017-Nov-11 09:30N 69°10' E 015°15'1 1.4
2017-Nov-11 09:00N 69°09' E 015°15'1 1.3
2017-Nov-11 08:30N 69°09' E 015°16'1 2.8
2017-Nov-11 07:59N 69°09' E 015°12'3 5.2
2017-Nov-11 07:29N 69°07' E 015°15'2 4.2
2017-Nov-11 07:00N 69°08' E 015°11'2 3.1
2017-Nov-11 06:29N 69°07' E 015°12'4 7.3
2017-Nov-11 05:59N 69°04' E 015°06'5 9.7
2017-Nov-11 05:30N 68°60' E 014°59'4 8.5
2017-Nov-11 05:00N 68°56' E 015°02'2 2.9
2017-Nov-11 04:28N 68°55' E 015°04'0 0.0
2017-Nov-11 03:58N 68°55' E 015°04'0 0.0
2017-Nov-11 03:28N 68°55' E 015°04'0 0.0
2017-Nov-11 02:58N 68°55' E 015°04'0 0.0
2017-Nov-11 02:28N 68°55' E 015°04'0 0.0
2017-Nov-11 01:58N 68°55' E 015°04'0 0.0
2017-Nov-11 01:28N 68°55' E 015°04'0 0.0
2017-Nov-11 00:58N 68°55' E 015°04'0 0.0
2017-Nov-11 00:28N 68°55' E 015°04'0 0.0
2017-Nov-10 23:58N 68°55' E 015°04'0 0.0
2017-Nov-10 23:28N 68°55' E 015°04'0 0.0
2017-Nov-10 22:58N 68°55' E 015°04'0 0.0
2017-Nov-10 22:25N 68°55' E 015°04'0 0.0
2017-Nov-10 21:58N 68°55' E 015°04'0 0.0
2017-Nov-10 21:28N 68°55' E 015°04'0 0.0
2017-Nov-10 20:58N 68°55' E 015°04'0 0.0
2017-Nov-10 20:28N 68°55' E 015°04'0 0.0
2017-Nov-10 19:58N 68°55' E 015°04'0 0.0
2017-Nov-10 19:28N 68°55' E 015°04'0 0.0
2017-Nov-10 18:58N 68°55' E 015°04'0 0.0
2017-Nov-10 18:28N 68°55' E 015°04'0 0.0
2017-Nov-10 17:58N 68°55' E 015°04'0 0.0
2017-Nov-10 17:28N 68°55' E 015°04'0 0.0
2017-Nov-10 16:58N 68°55' E 015°04'0 0.0
2017-Nov-10 16:28N 68°55' E 015°04'0 0.0
2017-Nov-10 15:58N 68°55' E 015°04'0 0.0
2017-Nov-10 15:28N 68°55' E 015°04'0 0.0
2017-Nov-10 14:58N 68°55' E 015°04'0 0.0
2017-Nov-10 14:28N 68°55' E 015°04'0 0.0
2017-Nov-10 13:55N 68°55' E 015°04'0 0.0
2017-Nov-10 13:25N 68°55' E 015°04'0 0.0
2017-Nov-10 12:55N 68°55' E 015°04'0 0.4
2017-Nov-10 12:30N 68°55' E 015°04'0 0.3
2017-Nov-10 11:58N 68°55' E 015°04'0 0.0
2017-Nov-10 11:28N 68°55' E 015°04'0 0.0
2017-Nov-10 10:58N 68°55' E 015°04'0 0.0
2017-Nov-10 10:28N 68°55' E 015°04'0 0.0
2017-Nov-10 09:58N 68°55' E 015°04'0 0.0
2017-Nov-10 09:28N 68°55' E 015°04'0 0.0
2017-Nov-10 08:58N 68°55' E 015°04'0 0.0
2017-Nov-10 08:28N 68°55' E 015°04'0 0.0
2017-Nov-10 07:58N 68°55' E 015°04'0 0.0
2017-Nov-10 07:28N 68°55' E 015°04'0 0.0
2017-Nov-10 06:58N 68°55' E 015°04'0 0.0
2017-Nov-10 06:28N 68°55' E 015°04'0 0.0
2017-Nov-10 05:58N 68°55' E 015°04'0 0.0
2017-Nov-10 05:28N 68°55' E 015°04'0 0.0
2017-Nov-10 04:58N 68°55' E 015°04'0 0.0
2017-Nov-10 04:28N 68°55' E 015°04'0 0.0
2017-Nov-10 03:58N 68°55' E 015°04'0 0.0
2017-Nov-10 03:28N 68°55' E 015°04'0 0.0
2017-Nov-10 02:58N 68°55' E 015°04'0 0.0
2017-Nov-10 02:28N 68°55' E 015°04'0 0.0
2017-Nov-10 01:58N 68°55' E 015°04'0 0.0
2017-Nov-10 01:28N 68°55' E 015°04'0 0.0
2017-Nov-10 00:58N 68°55' E 015°04'0 0.0
2017-Nov-10 00:28N 68°55' E 015°04'0 0.0
2017-Nov-09 23:58N 68°55' E 015°04'0 0.0
2017-Nov-09 23:28N 68°55' E 015°04'0 0.0
2017-Nov-09 22:58N 68°55' E 015°04'0 0.0
2017-Nov-09 22:28N 68°55' E 015°04'0 0.0
2017-Nov-09 21:58N 68°55' E 015°04'0 0.0
2017-Nov-09 21:28N 68°55' E 015°04'0 0.0
2017-Nov-09 20:55N 68°55' E 015°04'0 0.0
2017-Nov-09 20:28N 68°55' E 015°04'0 0.0
2017-Nov-09 19:58N 68°55' E 015°04'0 0.0
2017-Nov-09 19:28N 68°55' E 015°04'0 0.0
2017-Nov-09 18:58N 68°55' E 015°04'0 0.0
2017-Nov-09 18:28N 68°55' E 015°04'0 0.0
2017-Nov-09 17:58N 68°55' E 015°04'0 0.0
2017-Nov-09 17:28N 68°55' E 015°04'0 0.0
2017-Nov-09 16:58N 68°55' E 015°04'0 0.0
2017-Nov-09 16:28N 68°55' E 015°04'0 0.0
2017-Nov-09 15:58N 68°55' E 015°04'0 0.0
2017-Nov-09 15:28N 68°55' E 015°04'0 0.0
2017-Nov-09 14:58N 68°55' E 015°04'0 0.0
2017-Nov-09 14:28N 68°55' E 015°04'0 0.0
2017-Nov-09 13:58N 68°55' E 015°04'0 0.0
2017-Nov-09 13:28N 68°55' E 015°04'0 0.0
2017-Nov-09 12:58N 68°55' E 015°04'0 0.0
2017-Nov-09 12:28N 68°55' E 015°04'0 0.0
2017-Nov-09 11:58N 68°55' E 015°04'0 0.0
2017-Nov-09 11:28N 68°55' E 015°04'0 0.0
2017-Nov-09 10:55N 68°55' E 015°04'0 0.0
2017-Nov-09 10:28N 68°55' E 015°04'0 0.0
2017-Nov-09 09:58N 68°55' E 015°04'0 0.0
2017-Nov-09 09:28N 68°55' E 015°04'0 0.0
2017-Nov-09 08:55N 68°55' E 015°04'0 0.0
2017-Nov-09 08:28N 68°55' E 015°04'0 0.0
2017-Nov-09 07:58N 68°55' E 015°04'0 0.0
2017-Nov-09 07:28N 68°55' E 015°04'0 0.0
2017-Nov-09 06:57N 68°55' E 015°04'0 0.3
2017-Nov-09 06:28N 68°55' E 015°04'0 0.1
2017-Nov-09 05:58N 68°55' E 015°04'2 4.7
2017-Nov-09 05:30N 68°56' E 014°60'3 6.9
2017-Nov-09 05:00N 68°60' E 014°59'3 6.2
2017-Nov-09 04:30N 69°01' E 015°07'3 5.2
2017-Nov-09 03:59N 69°01' E 015°14'1 2.5
2017-Nov-09 03:31N 68°59' E 015°14'1 1.5
2017-Nov-09 03:00N 69°00' E 015°13'1 1.5
2017-Nov-09 02:29N 69°01' E 015°12'0 1.0
2017-Nov-09 02:00N 69°01' E 015°12'1 1.3
2017-Nov-09 01:30N 69°01' E 015°13'1 1.5
2017-Nov-09 00:58N 68°60' E 015°14'1 1.4
2017-Nov-09 00:28N 68°59' E 015°15'0 0.9
2017-Nov-08 23:59N 68°60' E 015°15'0 0.4
2017-Nov-08 23:29N 68°60' E 015°15'0 0.9
2017-Nov-08 22:59N 68°59' E 015°15'2 4.6
2017-Nov-08 22:30N 69°01' E 015°12'2 4.3
2017-Nov-08 22:00N 68°59' E 015°14'3 5.2
2017-Nov-08 21:29N 69°00' E 015°21'1 1.5
2017-Nov-08 20:59N 69°00' E 015°19'1 1.6
2017-Nov-08 20:30N 68°60' E 015°17'1 1.6
2017-Nov-08 19:58N 68°60' E 015°15'0 0.8
2017-Nov-08 19:30N 68°60' E 015°14'1 1.4
2017-Nov-08 19:00N 69°00' E 015°16'1 1.5
2017-Nov-08 18:30N 69°00' E 015°18'1 1.5
2017-Nov-08 18:00N 69°01' E 015°20'1 1.5
2017-Nov-08 17:30N 69°01' E 015°22'1 1.1
2017-Nov-08 17:00N 69°01' E 015°23'1 1.5
2017-Nov-08 16:30N 69°01' E 015°21'1 1.6
2017-Nov-08 16:00N 69°01' E 015°19'1 1.6
2017-Nov-08 15:28N 69°01' E 015°16'1 1.4
2017-Nov-08 15:01N 69°00' E 015°15'1 1.4
2017-Nov-08 14:28N 69°00' E 015°13'2 3.3
2017-Nov-08 13:48N 69°01' E 015°07'0 0.0
2017-Nov-08 13:30N 69°01' E 015°07'0 0.0
2017-Nov-08 12:36N 69°01' E 015°07'0 0.0
2017-Nov-08 12:27N 69°01' E 015°07'0 0.2
2017-Nov-08 11:49N 69°01' E 015°07'3 1.0
2017-Nov-08 09:05N 69°00' E 015°15'1 5.5
2017-Nov-08 09:00N 69°00' E 015°13'2 4.9
2017-Nov-08 08:30N 69°01' E 015°07'4 7.3
2017-Nov-08 08:00N 68°59' E 014°59'4 7.7
2017-Nov-08 07:30N 68°56' E 015°02'1 2.5
2017-Nov-08 07:00N 68°55' E 015°04'0 0.0
2017-Nov-08 06:30N 68°55' E 015°04'0 0.0
2017-Nov-08 06:00N 68°55' E 015°04'0 0.0
2017-Nov-08 05:30N 68°55' E 015°04'0 0.0
2017-Nov-08 05:00N 68°55' E 015°04'0 0.0
2017-Nov-08 04:30N 68°55' E 015°04'0 0.0
2017-Nov-08 04:00N 68°55' E 015°04'0 0.0
2017-Nov-08 03:30N 68°55' E 015°04'0 0.0
2017-Nov-08 03:00N 68°55' E 015°04'0 0.0
2017-Nov-08 02:30N 68°55' E 015°04'0 0.0
2017-Nov-08 02:00N 68°55' E 015°04'0 0.0
2017-Nov-08 01:30N 68°55' E 015°04'0 0.0
2017-Nov-08 01:00N 68°55' E 015°04'0 0.0
2017-Nov-08 00:30N 68°55' E 015°04'0 0.0
2017-Nov-08 00:00N 68°55' E 015°04'0 0.0
2017-Nov-07 22:39N 68°55' E 015°04'0 0.0
2017-Nov-07 22:30N 68°55' E 015°04'0 0.0
2017-Nov-07 22:00N 68°55' E 015°04'0 0.0
2017-Nov-07 21:30N 68°55' E 015°04'0 0.2
2017-Nov-07 20:54N 68°55' E 015°04'1 2.3
2017-Nov-07 20:30N 68°55' E 015°02'4 7.3
2017-Nov-07 20:00N 68°59' E 014°59'3 6.4
2017-Nov-07 19:30N 69°02' E 015°03'4 7.2
2017-Nov-07 19:00N 69°03' E 015°12'4 7.5
2017-Nov-07 18:30N 69°06' E 015°18'3 5.1
2017-Nov-07 18:00N 69°08' E 015°23'1 1.7
2017-Nov-07 17:30N 69°09' E 015°22'1 1.4
2017-Nov-07 17:00N 69°10' E 015°20'1 1.4
2017-Nov-07 16:30N 69°09' E 015°20'1 1.5
2017-Nov-07 16:00N 69°08' E 015°21'1 1.5
2017-Nov-07 15:30N 69°08' E 015°23'1 1.2
2017-Nov-07 15:00N 69°07' E 015°23'1 1.3
2017-Nov-07 14:29N 69°07' E 015°21'1 1.5
2017-Nov-07 13:59N 69°08' E 015°20'1 1.5
2017-Nov-07 13:30N 69°09' E 015°19'1 1.3
2017-Nov-07 13:00N 69°09' E 015°17'1 1.4
2017-Nov-07 12:30N 69°08' E 015°18'1 1.5
2017-Nov-07 12:00N 69°08' E 015°19'1 1.5
2017-Nov-07 11:30N 69°07' E 015°20'1 1.5
2017-Nov-07 11:00N 69°06' E 015°22'3 5.1
2017-Nov-07 10:30N 69°09' E 015°18'2 3.4
2017-Nov-07 10:00N 69°10' E 015°16'1 1.1
2017-Nov-07 09:31N 69°10' E 015°17'1 1.1
2017-Nov-07 09:01N 69°09' E 015°18'1 1.2
2017-Nov-07 08:30N 69°09' E 015°20'1 1.3
2017-Nov-07 08:00N 69°09' E 015°21'0 0.8
2017-Nov-07 07:30N 69°09' E 015°22'1 1.5
2017-Nov-07 07:00N 69°08' E 015°22'1 1.0
2017-Nov-07 06:30N 69°08' E 015°21'1 2.4
2017-Nov-07 06:00N 69°08' E 015°18'2 4.3
2017-Nov-07 05:30N 69°07' E 015°22'3 5.6
2017-Nov-07 05:00N 69°09' E 015°16'1 1.0
2017-Nov-07 04:30N 69°08' E 015°17'1 1.3
2017-Nov-07 03:59N 69°08' E 015°17'1 1.2
2017-Nov-07 03:30N 69°08' E 015°15'1 1.5
2017-Nov-07 03:00N 69°08' E 015°14'1 1.5
2017-Nov-07 02:30N 69°09' E 015°12'1 1.4
2017-Nov-07 02:00N 69°08' E 015°13'1 1.6
2017-Nov-07 01:30N 69°07' E 015°14'1 1.5
2017-Nov-07 01:00N 69°07' E 015°14'1 1.3
2017-Nov-07 00:30N 69°07' E 015°13'1 1.6
2017-Nov-07 00:00N 69°08' E 015°11'1 1.4
2017-Nov-06 23:30N 69°08' E 015°10'1 1.1
2017-Nov-06 22:59N 69°08' E 015°10'1 1.3
2017-Nov-06 22:30N 69°07' E 015°11'1 1.3
2017-Nov-06 22:00N 69°06' E 015°12'0 0.3
2017-Nov-06 21:30N 69°06' E 015°12'3 5.2
2017-Nov-06 20:57N 69°09' E 015°12'0 0.6
2017-Nov-06 20:29N 69°09' E 015°13'  

Dump ship's entire track history